This is the latest recevied weather packets stored in our database for station/object I8ZSE-10. If no packets are shown the sender has not sent any weather packets the latest 10 day(s).
| Time | Temp. | Humidity | Pressure | Rain* | Wind** | Luminosity | Snow |
|---|---|---|---|---|---|---|---|
| 1777804208 | 17.22° C | 39% | 1020.7 hPa | 0 mm | - | - | - |
| 1777803608 | 17.22° C | 39% | 1020.7 hPa | 0 mm | - | - | - |
| 1777803008 | 16.67° C | 39% | 1020.7 hPa | 0 mm | - | - | - |
| 1777802408 | 16.67° C | 39% | 1020.8 hPa | 0 mm | - | - | - |
| 1777801808 | 16.67° C | 40% | 1020.8 hPa | 0 mm | - | - | - |
| 1777801208 | 16.67° C | 40% | 1020.7 hPa | 0 mm | - | - | - |
| 1777800608 | 16.67° C | 40% | 1020.7 hPa | 0 mm | - | - | - |
| 1777800008 | 16.11° C | 40% | 1020.6 hPa | 0 mm | - | - | - |
| 1777799408 | 16.11° C | 40% | 1020.6 hPa | 0 mm | - | - | - |
| 1777798808 | 16.11° C | 41% | 1020.6 hPa | 0 mm | - | - | - |
| 1777798208 | 15.56° C | 40% | 1020.5 hPa | 0 mm | - | - | - |
| 1777797609 | 15.56° C | 40% | 1020.4 hPa | 0 mm | - | - | - |
| 1777797008 | 15.56° C | 40% | 1020.4 hPa | 0 mm | - | - | - |
| 1777796408 | 15° C | 40% | 1020.3 hPa | 0 mm | - | - | - |
| 1777795808 | 15° C | 40% | 1020.3 hPa | 0 mm | - | - | - |
| 1777795208 | 15° C | 40% | 1020.2 hPa | 0 mm | - | - | - |
| 1777794608 | 14.44° C | 41% | 1020.2 hPa | 0 mm | - | - | - |
| 1777794008 | 13.89° C | 42% | 1020 hPa | 0 mm | - | - | - |
| 1777793408 | 13.89° C | 42% | 1019.9 hPa | 0 mm | - | - | - |
| 1777792808 | 13.33° C | 43% | 1019.8 hPa | 0 mm | - | - | - |
| 1777792208 | 13.33° C | 45% | 1019.8 hPa | 0 mm | - | - | - |
| 1777791608 | 12.78° C | 47% | 1019.6 hPa | 0 mm | - | - | - |
| 1777791008 | 12.22° C | 49% | 1019.5 hPa | 0 mm | - | - | - |
| 1777790408 | 11.67° C | 51% | 1019.4 hPa | 0 mm | - | - | - |
| 1777789808 | 11.11° C | 53% | 1019.2 hPa | 0 mm | - | - | - |
* Rain latest hour (hover to see other rain measurements)
** Current wind speed in m/s (hover to see current wind gust speed)